sensor_id;sensor_type;location;lat;lon;timestamp;P1;durP1;ratioP1;P2;durP2;ratioP2
29452;SDS011;16424;50.956;5.320;2023-05-21T00:02:12;7.45;;;4.80;;
29452;SDS011;16424;50.956;5.320;2023-05-21T00:04:42;7.00;;;5.35;;
29452;SDS011;16424;50.956;5.320;2023-05-21T00:07:09;7.28;;;4.90;;
29452;SDS011;16424;50.956;5.320;2023-05-21T00:09:35;7.38;;;5.25;;
29452;SDS011;16424;50.956;5.320;2023-05-21T00:12:04;7.18;;;5.00;;
29452;SDS011;16424;50.956;5.320;2023-05-21T00:14:34;6.63;;;5.07;;
29452;SDS011;16424;50.956;5.320;2023-05-21T00:17:00;6.25;;;5.10;;
29452;SDS011;16424;50.956;5.320;2023-05-21T00:19:26;10.45;;;6.38;;
29452;SDS011;16424;50.956;5.320;2023-05-21T00:21:51;6.32;;;4.53;;
29452;SDS011;16424;50.956;5.320;2023-05-21T00:24:17;7.10;;;4.95;;
29452;SDS011;16424;50.956;5.320;2023-05-21T00:26:43;9.00;;;5.82;;
29452;SDS011;16424;50.956;5.320;2023-05-21T00:29:09;9.15;;;6.03;;
29452;SDS011;16424;50.956;5.320;2023-05-21T00:31:34;8.52;;;5.57;;
29452;SDS011;16424;50.956;5.320;2023-05-21T00:34:00;9.07;;;5.72;;
29452;SDS011;16424;50.956;5.320;2023-05-21T00:36:26;7.97;;;5.72;;
29452;SDS011;16424;50.956;5.320;2023-05-21T00:38:51;8.45;;;5.78;;
29452;SDS011;16424;50.956;5.320;2023-05-21T00:41:17;7.88;;;5.95;;
29452;SDS011;16424;50.956;5.320;2023-05-21T00:43:43;8.20;;;6.55;;
29452;SDS011;16424;50.956;5.320;2023-05-21T00:46:10;11.38;;;6.25;;
29452;SDS011;16424;50.956;5.320;2023-05-21T00:48:40;8.27;;;6.20;;
29452;SDS011;16424;50.956;5.320;2023-05-21T00:51:10;11.45;;;6.30;;
29452;SDS011;16424;50.956;5.320;2023-05-21T00:53:37;14.32;;;6.18;;
29452;SDS011;16424;50.956;5.320;2023-05-21T00:56:03;9.13;;;6.57;;
29452;SDS011;16424;50.956;5.320;2023-05-21T00:58:30;9.38;;;6.82;;
29452;SDS011;16424;50.956;5.320;2023-05-21T01:00:59;12.38;;;6.28;;
29452;SDS011;16424;50.956;5.320;2023-05-21T01:03:30;12.65;;;6.82;;
29452;SDS011;16424;50.956;5.320;2023-05-21T01:06:03;8.02;;;6.30;;
29452;SDS011;16424;50.956;5.320;2023-05-21T01:08:30;13.63;;;6.63;;
29452;SDS011;16424;50.956;5.320;2023-05-21T01:10:56;9.07;;;6.57;;
29452;SDS011;16424;50.956;5.320;2023-05-21T01:13:23;9.85;;;6.85;;
29452;SDS011;16424;50.956;5.320;2023-05-21T01:15:50;8.32;;;6.82;;
29452;SDS011;16424;50.956;5.320;2023-05-21T01:18:17;11.57;;;6.97;;
29452;SDS011;16424;50.956;5.320;2023-05-21T01:20:44;12.20;;;7.28;;
29452;SDS011;16424;50.956;5.320;2023-05-21T01:23:21;9.88;;;6.82;;
29452;SDS011;16424;50.956;5.320;2023-05-21T01:28:12;9.80;;;6.22;;
29452;SDS011;16424;50.956;5.320;2023-05-21T01:30:38;11.25;;;7.28;;
29452;SDS011;16424;50.956;5.320;2023-05-21T01:36:12;10.82;;;6.95;;
29452;SDS011;16424;50.956;5.320;2023-05-21T01:38:48;9.85;;;6.70;;
29452;SDS011;16424;50.956;5.320;2023-05-21T01:41:35;13.65;;;7.00;;
29452;SDS011;16424;50.956;5.320;2023-05-21T01:44:04;10.23;;;7.25;;
29452;SDS011;16424;50.956;5.320;2023-05-21T01:46:33;9.48;;;6.25;;
29452;SDS011;16424;50.956;5.320;2023-05-21T01:49:04;12.15;;;7.13;;
29452;SDS011;16424;50.956;5.320;2023-05-21T01:51:31;8.55;;;6.45;;
29452;SDS011;16424;50.956;5.320;2023-05-21T01:53:57;10.60;;;6.57;;
29452;SDS011;16424;50.956;5.320;2023-05-21T01:56:23;7.70;;;6.45;;
29452;SDS011;16424;50.956;5.320;2023-05-21T01:58:50;11.70;;;7.45;;
29452;SDS011;16424;50.956;5.320;2023-05-21T02:01:20;11.48;;;6.88;;
29452;SDS011;16424;50.956;5.320;2023-05-21T02:03:46;16.38;;;8.40;;
29452;SDS011;16424;50.956;5.320;2023-05-21T02:06:12;13.57;;;7.20;;
29452;SDS011;16424;50.956;5.320;2023-05-21T02:08:38;10.40;;;6.95;;
29452;SDS011;16424;50.956;5.320;2023-05-21T02:11:04;10.90;;;7.22;;
29452;SDS011;16424;50.956;5.320;2023-05-21T02:13:29;10.07;;;6.63;;
29452;SDS011;16424;50.956;5.320;2023-05-21T02:15:56;12.70;;;7.40;;
29452;SDS011;16424;50.956;5.320;2023-05-21T02:18:22;11.38;;;7.07;;
29452;SDS011;16424;50.956;5.320;2023-05-21T02:20:47;10.40;;;6.55;;
29452;SDS011;16424;50.956;5.320;2023-05-21T02:23:13;11.50;;;7.43;;
29452;SDS011;16424;50.956;5.320;2023-05-21T02:25:39;10.80;;;6.75;;
29452;SDS011;16424;50.956;5.320;2023-05-21T02:28:05;9.25;;;6.40;;
29452;SDS011;16424;50.956;5.320;2023-05-21T02:30:30;11.02;;;7.13;;
29452;SDS011;16424;50.956;5.320;2023-05-21T02:32:56;9.43;;;6.75;;
29452;SDS011;16424;50.956;5.320;2023-05-21T02:35:22;9.45;;;7.40;;
29452;SDS011;16424;50.956;5.320;2023-05-21T02:37:48;9.32;;;6.72;;
29452;SDS011;16424;50.956;5.320;2023-05-21T02:40:14;13.30;;;6.97;;
29452;SDS011;16424;50.956;5.320;2023-05-21T02:42:39;9.23;;;6.57;;
29452;SDS011;16424;50.956;5.320;2023-05-21T02:45:09;9.75;;;7.13;;
29452;SDS011;16424;50.956;5.320;2023-05-21T02:47:35;9.43;;;6.85;;
29452;SDS011;16424;50.956;5.320;2023-05-21T02:50:03;10.77;;;7.15;;
29452;SDS011;16424;50.956;5.320;2023-05-21T02:52:30;12.35;;;8.07;;
29452;SDS011;16424;50.956;5.320;2023-05-21T02:54:55;9.48;;;7.07;;
29452;SDS011;16424;50.956;5.320;2023-05-21T02:57:21;9.95;;;6.95;;
29452;SDS011;16424;50.956;5.320;2023-05-21T02:59:46;9.80;;;6.75;;
29452;SDS011;16424;50.956;5.320;2023-05-21T03:02:12;11.65;;;6.90;;
29452;SDS011;16424;50.956;5.320;2023-05-21T03:04:38;12.52;;;7.50;;
29452;SDS011;16424;50.956;5.320;2023-05-21T03:07:10;11.48;;;6.93;;
29452;SDS011;16424;50.956;5.320;2023-05-21T03:09:41;12.05;;;7.07;;
29452;SDS011;16424;50.956;5.320;2023-05-21T03:12:07;12.02;;;7.15;;
29452;SDS011;16424;50.956;5.320;2023-05-21T03:14:33;8.70;;;6.90;;
29452;SDS011;16424;50.956;5.320;2023-05-21T03:16:59;8.95;;;6.72;;
29452;SDS011;16424;50.956;5.320;2023-05-21T03:19:27;10.02;;;6.65;;
29452;SDS011;16424;50.956;5.320;2023-05-21T03:21:54;10.75;;;7.53;;
29452;SDS011;16424;50.956;5.320;2023-05-21T03:24:20;9.73;;;6.95;;
29452;SDS011;16424;50.956;5.320;2023-05-21T03:26:46;8.73;;;6.53;;
29452;SDS011;16424;50.956;5.320;2023-05-21T03:29:13;10.82;;;7.18;;
29452;SDS011;16424;50.956;5.320;2023-05-21T03:31:38;12.50;;;6.80;;
29452;SDS011;16424;50.956;5.320;2023-05-21T03:34:04;10.98;;;7.40;;
29452;SDS011;16424;50.956;5.320;2023-05-21T03:36:29;12.93;;;7.40;;
29452;SDS011;16424;50.956;5.320;2023-05-21T03:38:58;12.43;;;7.00;;
29452;SDS011;16424;50.956;5.320;2023-05-21T03:41:23;14.20;;;7.32;;
29452;SDS011;16424;50.956;5.320;2023-05-21T03:43:50;10.23;;;6.75;;
29452;SDS011;16424;50.956;5.320;2023-05-21T03:46:15;9.25;;;6.55;;
29452;SDS011;16424;50.956;5.320;2023-05-21T03:48:41;13.32;;;7.35;;
29452;SDS011;16424;50.956;5.320;2023-05-21T03:51:06;13.07;;;6.65;;
29452;SDS011;16424;50.956;5.320;2023-05-21T03:53:33;10.88;;;6.55;;
29452;SDS011;16424;50.956;5.320;2023-05-21T03:55:59;12.27;;;7.03;;
29452;SDS011;16424;50.956;5.320;2023-05-21T03:58:25;14.40;;;6.95;;
29452;SDS011;16424;50.956;5.320;2023-05-21T04:00:50;14.18;;;6.60;;
29452;SDS011;16424;50.956;5.320;2023-05-21T04:03:16;11.75;;;7.32;;
29452;SDS011;16424;50.956;5.320;2023-05-21T04:05:42;9.13;;;7.03;;
29452;SDS011;16424;50.956;5.320;2023-05-21T04:08:07;9.65;;;6.38;;
29452;SDS011;16424;50.956;5.320;2023-05-21T04:10:33;10.85;;;6.65;;
29452;SDS011;16424;50.956;5.320;2023-05-21T04:12:59;8.02;;;6.30;;
29452;SDS011;16424;50.956;5.320;2023-05-21T04:15:24;8.95;;;6.13;;
29452;SDS011;16424;50.956;5.320;2023-05-21T04:17:51;10.35;;;6.97;;
29452;SDS011;16424;50.956;5.320;2023-05-21T04:20:18;8.20;;;6.20;;
29452;SDS011;16424;50.956;5.320;2023-05-21T04:22:44;9.95;;;6.20;;
29452;SDS011;16424;50.956;5.320;2023-05-21T04:25:10;8.07;;;6.60;;
29452;SDS011;16424;50.956;5.320;2023-05-21T04:27:36;9.13;;;6.00;;
29452;SDS011;16424;50.956;5.320;2023-05-21T04:30:02;9.82;;;6.43;;
29452;SDS011;16424;50.956;5.320;2023-05-21T04:32:28;12.30;;;6.90;;
29452;SDS011;16424;50.956;5.320;2023-05-21T04:34:58;10.10;;;5.72;;
29452;SDS011;16424;50.956;5.320;2023-05-21T04:37:28;8.38;;;6.25;;
29452;SDS011;16424;50.956;5.320;2023-05-21T04:39:55;11.40;;;7.20;;
29452;SDS011;16424;50.956;5.320;2023-05-21T04:42:21;6.70;;;5.38;;
29452;SDS011;16424;50.956;5.320;2023-05-21T04:44:48;9.25;;;5.63;;
29452;SDS011;16424;50.956;5.320;2023-05-21T04:47:14;9.25;;;6.20;;
29452;SDS011;16424;50.956;5.320;2023-05-21T04:49:42;10.10;;;5.57;;
29452;SDS011;16424;50.956;5.320;2023-05-21T04:52:08;9.73;;;6.40;;
29452;SDS011;16424;50.956;5.320;2023-05-21T04:54:34;9.18;;;5.57;;
29452;SDS011;16424;50.956;5.320;2023-05-21T04:57:03;10.52;;;5.55;;
29452;SDS011;16424;50.956;5.320;2023-05-21T04:59:29;15.27;;;6.30;;
29452;SDS011;16424;50.956;5.320;2023-05-21T05:01:55;10.15;;;5.45;;
29452;SDS011;16424;50.956;5.320;2023-05-21T05:04:24;8.05;;;5.90;;
29452;SDS011;16424;50.956;5.320;2023-05-21T05:06:50;8.32;;;5.57;;
29452;SDS011;16424;50.956;5.320;2023-05-21T05:09:16;7.70;;;5.35;;
29452;SDS011;16424;50.956;5.320;2023-05-21T05:11:42;8.98;;;6.00;;
29452;SDS011;16424;50.956;5.320;2023-05-21T05:14:08;9.77;;;5.65;;
29452;SDS011;16424;50.956;5.320;2023-05-21T05:16:33;7.05;;;5.10;;
29452;SDS011;16424;50.956;5.320;2023-05-21T05:18:59;11.45;;;5.72;;
29452;SDS011;16424;50.956;5.320;2023-05-21T05:21:25;8.05;;;5.18;;
29452;SDS011;16424;50.956;5.320;2023-05-21T05:23:51;7.40;;;5.38;;
29452;SDS011;16424;50.956;5.320;2023-05-21T05:26:17;9.30;;;5.47;;
29452;SDS011;16424;50.956;5.320;2023-05-21T05:28:43;7.75;;;4.95;;
29452;SDS011;16424;50.956;5.320;2023-05-21T05:31:09;9.75;;;5.20;;
29452;SDS011;16424;50.956;5.320;2023-05-21T05:33:35;10.68;;;4.95;;
29452;SDS011;16424;50.956;5.320;2023-05-21T05:36:01;7.25;;;5.20;;
29452;SDS011;16424;50.956;5.320;2023-05-21T05:38:26;6.60;;;4.95;;
29452;SDS011;16424;50.956;5.320;2023-05-21T05:40:52;6.38;;;4.65;;
29452;SDS011;16424;50.956;5.320;2023-05-21T05:43:17;12.07;;;4.78;;
29452;SDS011;16424;50.956;5.320;2023-05-21T05:45:43;10.20;;;4.88;;
29452;SDS011;16424;50.956;5.320;2023-05-21T05:48:09;6.75;;;5.05;;
29452;SDS011;16424;50.956;5.320;2023-05-21T05:50:34;9.93;;;4.88;;
29452;SDS011;16424;50.956;5.320;2023-05-21T05:53:00;7.50;;;4.53;;
29452;SDS011;16424;50.956;5.320;2023-05-21T05:55:25;6.65;;;4.72;;
29452;SDS011;16424;50.956;5.320;2023-05-21T05:57:51;8.23;;;5.13;;
29452;SDS011;16424;50.956;5.320;2023-05-21T06:00:17;7.20;;;5.05;;
29452;SDS011;16424;50.956;5.320;2023-05-21T06:02:43;6.93;;;4.75;;
29452;SDS011;16424;50.956;5.320;2023-05-21T06:05:09;10.10;;;5.85;;
29452;SDS011;16424;50.956;5.320;2023-05-21T06:07:39;6.22;;;4.85;;
29452;SDS011;16424;50.956;5.320;2023-05-21T06:10:07;9.88;;;5.30;;
29452;SDS011;16424;50.956;5.320;2023-05-21T06:12:33;8.35;;;4.82;;
29452;SDS011;16424;50.956;5.320;2023-05-21T06:14:59;7.78;;;4.47;;
29452;SDS011;16424;50.956;5.320;2023-05-21T06:17:25;7.88;;;5.15;;
29452;SDS011;16424;50.956;5.320;2023-05-21T06:19:51;6.93;;;5.10;;
29452;SDS011;16424;50.956;5.320;2023-05-21T06:22:17;9.25;;;4.82;;
29452;SDS011;16424;50.956;5.320;2023-05-21T06:24:42;6.93;;;4.85;;
29452;SDS011;16424;50.956;5.320;2023-05-21T06:27:08;8.32;;;4.25;;
29452;SDS011;16424;50.956;5.320;2023-05-21T06:29:34;7.25;;;5.15;;
29452;SDS011;16424;50.956;5.320;2023-05-21T06:31:59;9.38;;;5.43;;
29452;SDS011;16424;50.956;5.320;2023-05-21T06:34:25;8.10;;;5.55;;
29452;SDS011;16424;50.956;5.320;2023-05-21T06:36:52;6.53;;;4.78;;
29452;SDS011;16424;50.956;5.320;2023-05-21T06:39:18;7.28;;;4.93;;
29452;SDS011;16424;50.956;5.320;2023-05-21T06:41:44;7.88;;;4.53;;
29452;SDS011;16424;50.956;5.320;2023-05-21T06:44:10;6.90;;;5.03;;
29452;SDS011;16424;50.956;5.320;2023-05-21T06:46:35;6.63;;;4.50;;
29452;SDS011;16424;50.956;5.320;2023-05-21T06:49:01;7.75;;;4.85;;
29452;SDS011;16424;50.956;5.320;2023-05-21T06:51:27;8.43;;;4.70;;
29452;SDS011;16424;50.956;5.320;2023-05-21T06:53:52;9.27;;;6.07;;
29452;SDS011;16424;50.956;5.320;2023-05-21T06:56:18;6.95;;;4.47;;
29452;SDS011;16424;50.956;5.320;2023-05-21T06:58:44;8.98;;;4.75;;
29452;SDS011;16424;50.956;5.320;2023-05-21T07:01:09;6.05;;;4.75;;
29452;SDS011;16424;50.956;5.320;2023-05-21T07:03:38;7.07;;;5.03;;
29452;SDS011;16424;50.956;5.320;2023-05-21T07:06:04;7.35;;;5.03;;
29452;SDS011;16424;50.956;5.320;2023-05-21T07:08:30;7.38;;;5.00;;
29452;SDS011;16424;50.956;5.320;2023-05-21T07:10:56;10.52;;;5.32;;
29452;SDS011;16424;50.956;5.320;2023-05-21T07:13:21;9.55;;;5.35;;
29452;SDS011;16424;50.956;5.320;2023-05-21T07:15:47;7.35;;;5.55;;
29452;SDS011;16424;50.956;5.320;2023-05-21T07:18:13;8.18;;;5.32;;
29452;SDS011;16424;50.956;5.320;2023-05-21T07:20:38;7.38;;;5.28;;
29452;SDS011;16424;50.956;5.320;2023-05-21T07:23:04;5.70;;;4.45;;
29452;SDS011;16424;50.956;5.320;2023-05-21T07:25:30;7.15;;;4.85;;
29452;SDS011;16424;50.956;5.320;2023-05-21T07:27:55;6.13;;;4.72;;
29452;SDS011;16424;50.956;5.320;2023-05-21T07:30:21;7.97;;;5.30;;
29452;SDS011;16424;50.956;5.320;2023-05-21T07:32:47;7.63;;;5.32;;
29452;SDS011;16424;50.956;5.320;2023-05-21T07:35:12;6.80;;;5.13;;
29452;SDS011;16424;50.956;5.320;2023-05-21T07:37:38;8.18;;;4.78;;
29452;SDS011;16424;50.956;5.320;2023-05-21T07:40:05;7.90;;;5.72;;
29452;SDS011;16424;50.956;5.320;2023-05-21T07:42:31;8.60;;;6.00;;
29452;SDS011;16424;50.956;5.320;2023-05-21T07:44:57;6.15;;;4.43;;
29452;SDS011;16424;50.956;5.320;2023-05-21T07:47:23;6.30;;;5.05;;
29452;SDS011;16424;50.956;5.320;2023-05-21T07:49:49;9.30;;;5.30;;
29452;SDS011;16424;50.956;5.320;2023-05-21T07:52:14;10.30;;;5.72;;
29452;SDS011;16424;50.956;5.320;2023-05-21T07:54:40;8.43;;;5.45;;
29452;SDS011;16424;50.956;5.320;2023-05-21T07:57:06;8.23;;;5.80;;
29452;SDS011;16424;50.956;5.320;2023-05-21T07:59:31;10.68;;;6.63;;
29452;SDS011;16424;50.956;5.320;2023-05-21T08:01:57;11.07;;;6.43;;
29452;SDS011;16424;50.956;5.320;2023-05-21T08:04:23;9.20;;;5.72;;
29452;SDS011;16424;50.956;5.320;2023-05-21T08:06:49;9.40;;;5.93;;
29452;SDS011;16424;50.956;5.320;2023-05-21T08:09:15;7.97;;;5.80;;
29452;SDS011;16424;50.956;5.320;2023-05-21T08:11:42;9.85;;;5.13;;
29452;SDS011;16424;50.956;5.320;2023-05-21T08:14:07;8.15;;;5.63;;
29452;SDS011;16424;50.956;5.320;2023-05-21T08:16:34;8.63;;;5.93;;
29452;SDS011;16424;50.956;5.320;2023-05-21T08:19:00;6.97;;;5.63;;
29452;SDS011;16424;50.956;5.320;2023-05-21T08:21:26;7.22;;;5.50;;
29452;SDS011;16424;50.956;5.320;2023-05-21T08:23:52;8.55;;;6.05;;
29452;SDS011;16424;50.956;5.320;2023-05-21T08:26:18;9.13;;;6.22;;
29452;SDS011;16424;50.956;5.320;2023-05-21T08:28:44;10.20;;;6.28;;
29452;SDS011;16424;50.956;5.320;2023-05-21T08:31:09;8.10;;;5.65;;
29452;SDS011;16424;50.956;5.320;2023-05-21T08:33:36;7.22;;;5.53;;
29452;SDS011;16424;50.956;5.320;2023-05-21T08:36:05;9.45;;;5.97;;
29452;SDS011;16424;50.956;5.320;2023-05-21T08:38:31;8.98;;;6.20;;
29452;SDS011;16424;50.956;5.320;2023-05-21T08:40:58;8.48;;;6.28;;
29452;SDS011;16424;50.956;5.320;2023-05-21T08:43:27;9.75;;;6.18;;
29452;SDS011;16424;50.956;5.320;2023-05-21T08:45:54;7.65;;;6.25;;
29452;SDS011;16424;50.956;5.320;2023-05-21T08:48:23;8.02;;;5.68;;
29452;SDS011;16424;50.956;5.320;2023-05-21T08:50:49;9.05;;;6.20;;
29452;SDS011;16424;50.956;5.320;2023-05-21T08:53:16;8.43;;;6.38;;
29452;SDS011;16424;50.956;5.320;2023-05-21T08:55:42;10.90;;;6.55;;
29452;SDS011;16424;50.956;5.320;2023-05-21T08:58:08;8.35;;;5.90;;
29452;SDS011;16424;50.956;5.320;2023-05-21T09:00:34;9.25;;;6.30;;
29452;SDS011;16424;50.956;5.320;2023-05-21T09:03:01;11.57;;;6.03;;
29452;SDS011;16424;50.956;5.320;2023-05-21T09:05:31;8.68;;;6.45;;
29452;SDS011;16424;50.956;5.320;2023-05-21T09:08:00;7.25;;;5.38;;
29452;SDS011;16424;50.956;5.320;2023-05-21T09:10:37;9.88;;;6.32;;
29452;SDS011;16424;50.956;5.320;2023-05-21T09:13:05;8.27;;;5.95;;
29452;SDS011;16424;50.956;5.320;2023-05-21T09:15:32;7.40;;;5.82;;
29452;SDS011;16424;50.956;5.320;2023-05-21T09:17:57;8.90;;;6.18;;
29452;SDS011;16424;50.956;5.320;2023-05-21T09:20:27;10.35;;;6.32;;
29452;SDS011;16424;50.956;5.320;2023-05-21T09:22:53;8.15;;;6.07;;
29452;SDS011;16424;50.956;5.320;2023-05-21T09:25:20;9.00;;;6.68;;
29452;SDS011;16424;50.956;5.320;2023-05-21T09:27:52;8.90;;;6.65;;
29452;SDS011;16424;50.956;5.320;2023-05-21T09:30:26;8.38;;;6.82;;
29452;SDS011;16424;50.956;5.320;2023-05-21T09:32:52;9.77;;;7.22;;
29452;SDS011;16424;50.956;5.320;2023-05-21T09:35:20;10.15;;;7.25;;
29452;SDS011;16424;50.956;5.320;2023-05-21T09:37:46;9.90;;;7.50;;
29452;SDS011;16424;50.956;5.320;2023-05-21T09:43:01;11.48;;;8.10;;
29452;SDS011;16424;50.956;5.320;2023-05-21T09:45:26;10.35;;;7.15;;
29452;SDS011;16424;50.956;5.320;2023-05-21T09:47:53;13.10;;;7.55;;
29452;SDS011;16424;50.956;5.320;2023-05-21T09:50:25;9.55;;;7.22;;
29452;SDS011;16424;50.956;5.320;2023-05-21T09:52:52;11.90;;;7.20;;
29452;SDS011;16424;50.956;5.320;2023-05-21T09:55:23;11.40;;;7.82;;
29452;SDS011;16424;50.956;5.320;2023-05-21T09:57:49;9.57;;;7.47;;
29452;SDS011;16424;50.956;5.320;2023-05-21T10:02:51;10.82;;;7.57;;
29452;SDS011;16424;50.956;5.320;2023-05-21T10:05:19;9.88;;;7.50;;
29452;SDS011;16424;50.956;5.320;2023-05-21T10:07:50;13.30;;;7.20;;
29452;SDS011;16424;50.956;5.320;2023-05-21T10:10:20;13.50;;;8.43;;
29452;SDS011;16424;50.956;5.320;2023-05-21T10:13:10;12.23;;;8.98;;
29452;SDS011;16424;50.956;5.320;2023-05-21T10:15:47;12.02;;;8.05;;
29452;SDS011;16424;50.956;5.320;2023-05-21T10:18:19;11.88;;;7.53;;
29452;SDS011;16424;50.956;5.320;2023-05-21T10:20:47;11.18;;;8.57;;
29452;SDS011;16424;50.956;5.320;2023-05-21T10:23:13;13.20;;;8.45;;
29452;SDS011;16424;50.956;5.320;2023-05-21T10:25:39;14.55;;;8.38;;
29452;SDS011;16424;50.956;5.320;2023-05-21T10:28:05;15.30;;;8.65;;
29452;SDS011;16424;50.956;5.320;2023-05-21T10:30:31;11.15;;;8.93;;
29452;SDS011;16424;50.956;5.320;2023-05-21T10:32:57;11.82;;;8.63;;
29452;SDS011;16424;50.956;5.320;2023-05-21T10:35:25;9.85;;;7.90;;
29452;SDS011;16424;50.956;5.320;2023-05-21T10:37:52;13.30;;;8.80;;
29452;SDS011;16424;50.956;5.320;2023-05-21T10:40:19;16.80;;;8.65;;
29452;SDS011;16424;50.956;5.320;2023-05-21T10:45:46;14.18;;;8.75;;
29452;SDS011;16424;50.956;5.320;2023-05-21T10:51:25;14.55;;;9.45;;
29452;SDS011;16424;50.956;5.320;2023-05-21T10:56:49;13.88;;;9.13;;
29452;SDS011;16424;50.956;5.320;2023-05-21T10:59:34;13.77;;;9.00;;
29452;SDS011;16424;50.956;5.320;2023-05-21T11:02:08;13.77;;;9.23;;
29452;SDS011;16424;50.956;5.320;2023-05-21T11:04:36;13.50;;;8.95;;
29452;SDS011;16424;50.956;5.320;2023-05-21T11:07:05;12.07;;;9.35;;
29452;SDS011;16424;50.956;5.320;2023-05-21T11:09:31;15.63;;;9.68;;
29452;SDS011;16424;50.956;5.320;2023-05-21T11:11:57;16.25;;;9.45;;
29452;SDS011;16424;50.956;5.320;2023-05-21T11:16:57;13.48;;;8.77;;
29452;SDS011;16424;50.956;5.320;2023-05-21T11:19:31;13.82;;;9.05;;
29452;SDS011;16424;50.956;5.320;2023-05-21T11:22:04;16.00;;;9.95;;
29452;SDS011;16424;50.956;5.320;2023-05-21T11:24:49;18.00;;;11.70;;
29452;SDS011;16424;50.956;5.320;2023-05-21T11:30:07;17.10;;;9.75;;
29452;SDS011;16424;50.956;5.320;2023-05-21T11:33:16;13.00;;;9.75;;
29452;SDS011;16424;50.956;5.320;2023-05-21T11:35:34;11.30;;;8.73;;
29452;SDS011;16424;50.956;5.320;2023-05-21T11:38:09;13.55;;;9.57;;
29452;SDS011;16424;50.956;5.320;2023-05-21T11:40:35;13.15;;;9.05;;
29452;SDS011;16424;50.956;5.320;2023-05-21T11:43:00;14.82;;;9.63;;
29452;SDS011;16424;50.956;5.320;2023-05-21T11:45:27;15.20;;;10.30;;
29452;SDS011;16424;50.956;5.320;2023-05-21T11:47:55;13.32;;;9.57;;
29452;SDS011;16424;50.956;5.320;2023-05-21T11:50:21;13.90;;;9.95;;
29452;SDS011;16424;50.956;5.320;2023-05-21T11:52:47;15.80;;;9.35;;
29452;SDS011;16424;50.956;5.320;2023-05-21T11:55:14;15.38;;;9.80;;
29452;SDS011;16424;50.956;5.320;2023-05-21T11:57:40;15.20;;;10.38;;
29452;SDS011;16424;50.956;5.320;2023-05-21T12:00:12;12.27;;;9.27;;
29452;SDS011;16424;50.956;5.320;2023-05-21T12:02:46;13.60;;;9.27;;
29452;SDS011;16424;50.956;5.320;2023-05-21T12:05:14;14.05;;;9.35;;
29452;SDS011;16424;50.956;5.320;2023-05-21T12:07:40;16.17;;;9.98;;
29452;SDS011;16424;50.956;5.320;2023-05-21T12:10:06;12.40;;;8.60;;
29452;SDS011;16424;50.956;5.320;2023-05-21T12:12:32;14.65;;;9.63;;
29452;SDS011;16424;50.956;5.320;2023-05-21T12:14:58;16.95;;;10.13;;
29452;SDS011;16424;50.956;5.320;2023-05-21T12:17:26;13.02;;;9.45;;
29452;SDS011;16424;50.956;5.320;2023-05-21T12:19:54;12.40;;;9.00;;
29452;SDS011;16424;50.956;5.320;2023-05-21T12:22:21;12.93;;;8.93;;
29452;SDS011;16424;50.956;5.320;2023-05-21T12:24:48;14.68;;;10.07;;
29452;SDS011;16424;50.956;5.320;2023-05-21T12:27:15;14.05;;;8.55;;
29452;SDS011;16424;50.956;5.320;2023-05-21T12:29:43;13.80;;;9.88;;
29452;SDS011;16424;50.956;5.320;2023-05-21T12:32:10;15.05;;;9.75;;
29452;SDS011;16424;50.956;5.320;2023-05-21T12:34:44;12.00;;;9.23;;
29452;SDS011;16424;50.956;5.320;2023-05-21T12:37:11;16.03;;;9.87;;
29452;SDS011;16424;50.956;5.320;2023-05-21T12:39:46;14.35;;;9.68;;
29452;SDS011;16424;50.956;5.320;2023-05-21T12:42:14;14.60;;;9.57;;
29452;SDS011;16424;50.956;5.320;2023-05-21T12:44:43;13.02;;;8.95;;
29452;SDS011;16424;50.956;5.320;2023-05-21T12:47:11;15.07;;;8.80;;
29452;SDS011;16424;50.956;5.320;2023-05-21T12:49:38;12.80;;;8.52;;
29452;SDS011;16424;50.956;5.320;2023-05-21T12:52:11;13.63;;;8.98;;
29452;SDS011;16424;50.956;5.320;2023-05-21T12:54:38;14.30;;;8.93;;
29452;SDS011;16424;50.956;5.320;2023-05-21T12:57:14;14.77;;;8.73;;
29452;SDS011;16424;50.956;5.320;2023-05-21T12:59:48;12.40;;;8.73;;
29452;SDS011;16424;50.956;5.320;2023-05-21T13:04:57;13.38;;;9.43;;
29452;SDS011;16424;50.956;5.320;2023-05-21T13:07:30;15.45;;;9.65;;
29452;SDS011;16424;50.956;5.320;2023-05-21T13:09:57;16.40;;;9.20;;
29452;SDS011;16424;50.956;5.320;2023-05-21T13:12:24;12.80;;;7.82;;
29452;SDS011;16424;50.956;5.320;2023-05-21T13:14:54;12.93;;;8.82;;
29452;SDS011;16424;50.956;5.320;2023-05-21T13:17:21;16.42;;;8.82;;
29452;SDS011;16424;50.956;5.320;2023-05-21T13:22:43;13.87;;;9.10;;
29452;SDS011;16424;50.956;5.320;2023-05-21T13:25:16;13.00;;;9.20;;
29452;SDS011;16424;50.956;5.320;2023-05-21T13:27:44;12.68;;;9.10;;
29452;SDS011;16424;50.956;5.320;2023-05-21T13:30:10;20.27;;;8.75;;
29452;SDS011;16424;50.956;5.320;2023-05-21T13:32:37;10.70;;;7.90;;
29452;SDS011;16424;50.956;5.320;2023-05-21T13:35:03;13.25;;;7.95;;
29452;SDS011;16424;50.956;5.320;2023-05-21T13:37:29;15.40;;;9.68;;
29452;SDS011;16424;50.956;5.320;2023-05-21T13:39:55;13.77;;;8.05;;
29452;SDS011;16424;50.956;5.320;2023-05-21T13:42:21;14.10;;;9.60;;
29452;SDS011;16424;50.956;5.320;2023-05-21T13:44:47;10.80;;;8.18;;
29452;SDS011;16424;50.956;5.320;2023-05-21T13:47:13;12.95;;;8.73;;
29452;SDS011;16424;50.956;5.320;2023-05-21T13:49:39;15.75;;;8.85;;
29452;SDS011;16424;50.956;5.320;2023-05-21T13:52:06;15.25;;;9.60;;
29452;SDS011;16424;50.956;5.320;2023-05-21T13:54:33;12.02;;;8.65;;
29452;SDS011;16424;50.956;5.320;2023-05-21T13:56:59;13.02;;;9.45;;
29452;SDS011;16424;50.956;5.320;2023-05-21T13:59:25;14.10;;;9.07;;
29452;SDS011;16424;50.956;5.320;2023-05-21T14:01:50;12.88;;;7.90;;
29452;SDS011;16424;50.956;5.320;2023-05-21T14:04:17;12.32;;;9.10;;
29452;SDS011;16424;50.956;5.320;2023-05-21T14:06:44;13.35;;;8.75;;
29452;SDS011;16424;50.956;5.320;2023-05-21T14:09:10;12.80;;;8.25;;
29452;SDS011;16424;50.956;5.320;2023-05-21T14:11:36;11.63;;;8.35;;
29452;SDS011;16424;50.956;5.320;2023-05-21T14:14:02;16.77;;;8.80;;
29452;SDS011;16424;50.956;5.320;2023-05-21T14:16:28;15.25;;;8.48;;
29452;SDS011;16424;50.956;5.320;2023-05-21T14:18:54;13.02;;;8.30;;
29452;SDS011;16424;50.956;5.320;2023-05-21T14:21:20;11.85;;;8.77;;
29452;SDS011;16424;50.956;5.320;2023-05-21T14:23:46;10.38;;;8.40;;
29452;SDS011;16424;50.956;5.320;2023-05-21T14:26:13;16.05;;;9.60;;
29452;SDS011;16424;50.956;5.320;2023-05-21T14:28:39;14.05;;;8.68;;
29452;SDS011;16424;50.956;5.320;2023-05-21T14:31:05;10.57;;;7.60;;
29452;SDS011;16424;50.956;5.320;2023-05-21T14:33:30;14.10;;;8.95;;
29452;SDS011;16424;50.956;5.320;2023-05-21T14:35:57;10.75;;;7.60;;
29452;SDS011;16424;50.956;5.320;2023-05-21T14:38:23;19.73;;;9.13;;
29452;SDS011;16424;50.956;5.320;2023-05-21T14:40:49;11.23;;;8.38;;
29452;SDS011;16424;50.956;5.320;2023-05-21T14:43:15;11.15;;;8.57;;
29452;SDS011;16424;50.956;5.320;2023-05-21T14:45:41;12.88;;;8.15;;
29452;SDS011;16424;50.956;5.320;2023-05-21T14:48:06;12.88;;;8.32;;
29452;SDS011;16424;50.956;5.320;2023-05-21T14:50:35;11.60;;;8.38;;
29452;SDS011;16424;50.956;5.320;2023-05-21T14:53:07;11.23;;;8.75;;
29452;SDS011;16424;50.956;5.320;2023-05-21T14:55:34;13.85;;;9.10;;
29452;SDS011;16424;50.956;5.320;2023-05-21T14:58:01;11.38;;;8.43;;
29452;SDS011;16424;50.956;5.320;2023-05-21T15:00:28;11.85;;;7.90;;
29452;SDS011;16424;50.956;5.320;2023-05-21T15:02:54;11.75;;;9.07;;
29452;SDS011;16424;50.956;5.320;2023-05-21T15:05:20;11.65;;;8.15;;
29452;SDS011;16424;50.956;5.320;2023-05-21T15:07:46;10.68;;;8.32;;
29452;SDS011;16424;50.956;5.320;2023-05-21T15:10:12;13.52;;;9.23;;
29452;SDS011;16424;50.956;5.320;2023-05-21T15:12:38;12.77;;;8.35;;